sensor_id;sensor_type;location;lat;lon;timestamp;P1;durP1;ratioP1;P2;durP2;ratioP2
65373;SDS011;52070;53.760;9.678;2023-05-15T00:00:02;10.18;;;5.88;;
65373;SDS011;52070;53.760;9.678;2023-05-15T00:02:30;7.38;;;5.32;;
65373;SDS011;52070;53.760;9.678;2023-05-15T00:04:58;13.52;;;6.43;;
65373;SDS011;52070;53.760;9.678;2023-05-15T00:07:25;10.38;;;6.22;;
65373;SDS011;52070;53.760;9.678;2023-05-15T00:09:52;13.68;;;7.13;;
65373;SDS011;52070;53.760;9.678;2023-05-15T00:12:20;12.68;;;7.10;;
65373;SDS011;52070;53.760;9.678;2023-05-15T00:14:47;7.82;;;6.35;;
65373;SDS011;52070;53.760;9.678;2023-05-15T00:17:14;9.50;;;5.93;;
65373;SDS011;52070;53.760;9.678;2023-05-15T00:19:41;8.15;;;6.20;;
65373;SDS011;52070;53.760;9.678;2023-05-15T00:22:08;14.57;;;6.97;;
65373;SDS011;52070;53.760;9.678;2023-05-15T00:24:35;11.23;;;6.47;;
65373;SDS011;52070;53.760;9.678;2023-05-15T00:27:02;9.43;;;6.47;;
65373;SDS011;52070;53.760;9.678;2023-05-15T00:29:30;9.93;;;6.18;;
65373;SDS011;52070;53.760;9.678;2023-05-15T00:31:57;9.27;;;6.18;;
65373;SDS011;52070;53.760;9.678;2023-05-15T00:34:24;7.72;;;6.10;;
65373;SDS011;52070;53.760;9.678;2023-05-15T00:36:51;12.07;;;6.03;;
65373;SDS011;52070;53.760;9.678;2023-05-15T00:39:18;8.95;;;6.32;;
65373;SDS011;52070;53.760;9.678;2023-05-15T00:41:45;8.57;;;6.43;;
65373;SDS011;52070;53.760;9.678;2023-05-15T00:44:14;8.35;;;6.43;;
65373;SDS011;52070;53.760;9.678;2023-05-15T00:46:45;9.40;;;6.60;;
65373;SDS011;52070;53.760;9.678;2023-05-15T00:49:14;6.97;;;5.53;;
65373;SDS011;52070;53.760;9.678;2023-05-15T00:51:44;7.60;;;5.95;;
65373;SDS011;52070;53.760;9.678;2023-05-15T00:54:11;12.90;;;6.30;;
65373;SDS011;52070;53.760;9.678;2023-05-15T00:56:38;10.85;;;6.63;;
65373;SDS011;52070;53.760;9.678;2023-05-15T00:59:06;7.55;;;6.68;;
65373;SDS011;52070;53.760;9.678;2023-05-15T01:01:33;12.27;;;6.43;;
65373;SDS011;52070;53.760;9.678;2023-05-15T01:04:02;7.90;;;6.28;;
65373;SDS011;52070;53.760;9.678;2023-05-15T01:06:29;10.98;;;6.07;;
65373;SDS011;52070;53.760;9.678;2023-05-15T01:08:57;8.57;;;5.80;;
65373;SDS011;52070;53.760;9.678;2023-05-15T01:11:28;8.30;;;6.30;;
65373;SDS011;52070;53.760;9.678;2023-05-15T01:14:01;15.85;;;6.78;;
65373;SDS011;52070;53.760;9.678;2023-05-15T01:16:29;8.57;;;6.20;;
65373;SDS011;52070;53.760;9.678;2023-05-15T01:18:57;9.80;;;6.43;;
65373;SDS011;52070;53.760;9.678;2023-05-15T01:21:36;8.85;;;6.15;;
65373;SDS011;52070;53.760;9.678;2023-05-15T01:24:23;10.48;;;5.93;;
65373;SDS011;52070;53.760;9.678;2023-05-15T01:27:08;8.25;;;6.30;;
65373;SDS011;52070;53.760;9.678;2023-05-15T01:29:42;10.73;;;6.43;;
65373;SDS011;52070;53.760;9.678;2023-05-15T01:32:13;7.25;;;6.43;;
65373;SDS011;52070;53.760;9.678;2023-05-15T01:34:51;9.13;;;6.60;;
65373;SDS011;52070;53.760;9.678;2023-05-15T01:37:23;9.30;;;7.03;;
65373;SDS011;52070;53.760;9.678;2023-05-15T01:39:54;8.20;;;6.32;;
65373;SDS011;52070;53.760;9.678;2023-05-15T01:42:28;10.98;;;7.30;;
65373;SDS011;52070;53.760;9.678;2023-05-15T01:44:59;13.38;;;7.65;;
65373;SDS011;52070;53.760;9.678;2023-05-15T01:47:32;10.10;;;7.18;;
65373;SDS011;52070;53.760;9.678;2023-05-15T01:50:03;13.88;;;7.03;;
65373;SDS011;52070;53.760;9.678;2023-05-15T01:52:33;13.60;;;7.85;;
65373;SDS011;52070;53.760;9.678;2023-05-15T01:55:02;13.48;;;7.32;;
65373;SDS011;52070;53.760;9.678;2023-05-15T01:57:32;13.60;;;6.93;;
65373;SDS011;52070;53.760;9.678;2023-05-15T02:00:00;12.18;;;6.95;;
65373;SDS011;52070;53.760;9.678;2023-05-15T02:02:28;9.77;;;6.88;;
65373;SDS011;52070;53.760;9.678;2023-05-15T02:04:56;11.10;;;7.10;;
65373;SDS011;52070;53.760;9.678;2023-05-15T02:07:25;14.85;;;7.65;;
65373;SDS011;52070;53.760;9.678;2023-05-15T02:09:52;9.68;;;7.35;;
65373;SDS011;52070;53.760;9.678;2023-05-15T02:12:19;10.85;;;7.72;;
65373;SDS011;52070;53.760;9.678;2023-05-15T02:14:49;12.48;;;7.40;;
65373;SDS011;52070;53.760;9.678;2023-05-15T02:17:16;13.80;;;8.77;;
65373;SDS011;52070;53.760;9.678;2023-05-15T02:19:43;9.90;;;8.25;;
65373;SDS011;52070;53.760;9.678;2023-05-15T02:22:10;11.32;;;8.52;;
65373;SDS011;52070;53.760;9.678;2023-05-15T02:24:37;12.50;;;9.05;;
65373;SDS011;52070;53.760;9.678;2023-05-15T02:27:07;11.00;;;8.95;;
65373;SDS011;52070;53.760;9.678;2023-05-15T02:29:41;12.50;;;9.23;;
65373;SDS011;52070;53.760;9.678;2023-05-15T02:32:21;11.43;;;8.85;;
65373;SDS011;52070;53.760;9.678;2023-05-15T02:34:57;12.93;;;9.55;;
65373;SDS011;52070;53.760;9.678;2023-05-15T02:37:30;13.30;;;10.05;;
65373;SDS011;52070;53.760;9.678;2023-05-15T02:39:58;15.52;;;9.55;;
65373;SDS011;52070;53.760;9.678;2023-05-15T02:42:27;12.35;;;9.43;;
65373;SDS011;52070;53.760;9.678;2023-05-15T02:44:56;15.90;;;11.00;;
65373;SDS011;52070;53.760;9.678;2023-05-15T02:47:23;14.02;;;9.32;;
65373;SDS011;52070;53.760;9.678;2023-05-15T02:49:51;12.10;;;9.90;;
65373;SDS011;52070;53.760;9.678;2023-05-15T02:52:19;15.25;;;9.50;;
65373;SDS011;52070;53.760;9.678;2023-05-15T02:54:46;13.18;;;9.95;;
65373;SDS011;52070;53.760;9.678;2023-05-15T02:57:13;16.85;;;10.32;;
65373;SDS011;52070;53.760;9.678;2023-05-15T02:59:39;12.68;;;9.48;;
65373;SDS011;52070;53.760;9.678;2023-05-15T03:02:08;11.82;;;10.45;;
65373;SDS011;52070;53.760;9.678;2023-05-15T03:04:35;11.60;;;9.77;;
65373;SDS011;52070;53.760;9.678;2023-05-15T03:07:02;13.55;;;10.45;;
65373;SDS011;52070;53.760;9.678;2023-05-15T03:09:29;13.48;;;10.85;;
65373;SDS011;52070;53.760;9.678;2023-05-15T03:11:56;16.35;;;9.85;;
65373;SDS011;52070;53.760;9.678;2023-05-15T03:14:23;13.32;;;10.02;;
65373;SDS011;52070;53.760;9.678;2023-05-15T03:16:50;12.18;;;9.43;;
65373;SDS011;52070;53.760;9.678;2023-05-15T03:19:18;12.45;;;9.80;;
65373;SDS011;52070;53.760;9.678;2023-05-15T03:21:45;12.50;;;9.90;;
65373;SDS011;52070;53.760;9.678;2023-05-15T03:24:12;16.85;;;9.93;;
65373;SDS011;52070;53.760;9.678;2023-05-15T03:26:39;15.20;;;10.32;;
65373;SDS011;52070;53.760;9.678;2023-05-15T03:29:07;16.00;;;11.20;;
65373;SDS011;52070;53.760;9.678;2023-05-15T03:31:34;14.75;;;9.88;;
65373;SDS011;52070;53.760;9.678;2023-05-15T03:34:00;16.15;;;10.00;;
65373;SDS011;52070;53.760;9.678;2023-05-15T03:36:29;14.05;;;10.15;;
65373;SDS011;52070;53.760;9.678;2023-05-15T03:38:56;13.23;;;9.75;;
65373;SDS011;52070;53.760;9.678;2023-05-15T03:41:23;14.23;;;10.30;;
65373;SDS011;52070;53.760;9.678;2023-05-15T03:43:50;13.13;;;9.80;;
65373;SDS011;52070;53.760;9.678;2023-05-15T03:46:17;16.73;;;10.20;;
65373;SDS011;52070;53.760;9.678;2023-05-15T03:48:44;14.73;;;10.18;;
65373;SDS011;52070;53.760;9.678;2023-05-15T03:51:11;15.55;;;9.75;;
65373;SDS011;52070;53.760;9.678;2023-05-15T03:53:39;15.73;;;9.95;;
65373;SDS011;52070;53.760;9.678;2023-05-15T03:56:06;15.77;;;9.95;;
65373;SDS011;52070;53.760;9.678;2023-05-15T03:58:33;14.85;;;9.95;;
65373;SDS011;52070;53.760;9.678;2023-05-15T04:01:00;16.02;;;10.75;;
65373;SDS011;52070;53.760;9.678;2023-05-15T04:03:27;12.80;;;10.13;;
65373;SDS011;52070;53.760;9.678;2023-05-15T04:05:54;13.82;;;11.00;;
65373;SDS011;52070;53.760;9.678;2023-05-15T04:08:21;17.25;;;10.20;;
65373;SDS011;52070;53.760;9.678;2023-05-15T04:10:49;15.23;;;11.00;;
65373;SDS011;52070;53.760;9.678;2023-05-15T04:13:16;16.23;;;11.35;;
65373;SDS011;52070;53.760;9.678;2023-05-15T04:15:43;13.48;;;10.35;;
65373;SDS011;52070;53.760;9.678;2023-05-15T04:18:11;16.60;;;11.52;;
65373;SDS011;52070;53.760;9.678;2023-05-15T04:20:38;13.23;;;10.18;;
65373;SDS011;52070;53.760;9.678;2023-05-15T04:23:04;15.07;;;11.23;;
65373;SDS011;52070;53.760;9.678;2023-05-15T04:25:31;14.45;;;10.48;;
65373;SDS011;52070;53.760;9.678;2023-05-15T04:28:00;16.85;;;10.90;;
65373;SDS011;52070;53.760;9.678;2023-05-15T04:30:27;16.05;;;11.70;;
65373;SDS011;52070;53.760;9.678;2023-05-15T04:32:54;16.40;;;11.05;;
65373;SDS011;52070;53.760;9.678;2023-05-15T04:35:21;15.57;;;11.55;;
65373;SDS011;52070;53.760;9.678;2023-05-15T04:37:48;14.93;;;10.98;;
65373;SDS011;52070;53.760;9.678;2023-05-15T04:40:15;13.15;;;10.50;;
65373;SDS011;52070;53.760;9.678;2023-05-15T04:42:42;20.08;;;11.48;;
65373;SDS011;52070;53.760;9.678;2023-05-15T04:45:10;19.45;;;11.38;;
65373;SDS011;52070;53.760;9.678;2023-05-15T04:47:37;14.68;;;10.63;;
65373;SDS011;52070;53.760;9.678;2023-05-15T04:50:04;19.42;;;11.88;;
65373;SDS011;52070;53.760;9.678;2023-05-15T04:52:32;16.23;;;11.25;;
65373;SDS011;52070;53.760;9.678;2023-05-15T04:54:59;16.63;;;11.13;;
65373;SDS011;52070;53.760;9.678;2023-05-15T04:57:26;14.15;;;9.93;;
65373;SDS011;52070;53.760;9.678;2023-05-15T04:59:53;13.95;;;10.73;;
65373;SDS011;52070;53.760;9.678;2023-05-15T05:02:22;12.50;;;10.52;;
65373;SDS011;52070;53.760;9.678;2023-05-15T05:04:49;13.27;;;9.77;;
65373;SDS011;52070;53.760;9.678;2023-05-15T05:07:16;13.95;;;11.05;;
65373;SDS011;52070;53.760;9.678;2023-05-15T05:09:43;15.25;;;9.68;;
65373;SDS011;52070;53.760;9.678;2023-05-15T05:12:10;14.18;;;10.20;;
65373;SDS011;52070;53.760;9.678;2023-05-15T05:14:37;14.93;;;10.20;;
65373;SDS011;52070;53.760;9.678;2023-05-15T05:17:06;15.70;;;9.80;;
65373;SDS011;52070;53.760;9.678;2023-05-15T05:19:34;11.77;;;9.32;;
65373;SDS011;52070;53.760;9.678;2023-05-15T05:22:02;9.98;;;8.60;;
65373;SDS011;52070;53.760;9.678;2023-05-15T05:24:30;13.68;;;9.70;;
65373;SDS011;52070;53.760;9.678;2023-05-15T05:26:57;22.50;;;9.63;;
65373;SDS011;52070;53.760;9.678;2023-05-15T05:29:24;13.35;;;8.98;;
65373;SDS011;52070;53.760;9.678;2023-05-15T05:31:51;12.00;;;9.63;;
65373;SDS011;52070;53.760;9.678;2023-05-15T05:34:18;15.48;;;10.15;;
65373;SDS011;52070;53.760;9.678;2023-05-15T05:36:47;15.65;;;9.65;;
65373;SDS011;52070;53.760;9.678;2023-05-15T05:39:14;13.50;;;9.02;;
65373;SDS011;52070;53.760;9.678;2023-05-15T05:41:42;16.30;;;9.05;;
65373;SDS011;52070;53.760;9.678;2023-05-15T05:44:09;14.80;;;8.85;;
65373;SDS011;52070;53.760;9.678;2023-05-15T05:46:36;16.75;;;9.50;;
65373;SDS011;52070;53.760;9.678;2023-05-15T05:49:03;10.73;;;8.68;;
65373;SDS011;52070;53.760;9.678;2023-05-15T05:51:29;13.00;;;9.02;;
65373;SDS011;52070;53.760;9.678;2023-05-15T05:53:58;11.60;;;9.20;;
65373;SDS011;52070;53.760;9.678;2023-05-15T05:56:25;12.45;;;8.45;;
65373;SDS011;52070;53.760;9.678;2023-05-15T05:58:52;10.85;;;8.43;;
65373;SDS011;52070;53.760;9.678;2023-05-15T06:01:20;12.63;;;7.75;;
65373;SDS011;52070;53.760;9.678;2023-05-15T06:03:48;11.05;;;8.02;;
65373;SDS011;52070;53.760;9.678;2023-05-15T06:06:14;14.35;;;7.65;;
65373;SDS011;52070;53.760;9.678;2023-05-15T06:08:41;12.32;;;7.82;;
65373;SDS011;52070;53.760;9.678;2023-05-15T06:11:10;13.05;;;8.35;;
65373;SDS011;52070;53.760;9.678;2023-05-15T06:13:37;14.85;;;8.20;;
65373;SDS011;52070;53.760;9.678;2023-05-15T06:16:05;15.13;;;8.40;;
65373;SDS011;52070;53.760;9.678;2023-05-15T06:18:32;9.95;;;7.68;;
65373;SDS011;52070;53.760;9.678;2023-05-15T06:20:59;10.48;;;8.27;;
65373;SDS011;52070;53.760;9.678;2023-05-15T06:23:26;12.05;;;8.48;;
65373;SDS011;52070;53.760;9.678;2023-05-15T06:25:53;10.23;;;8.23;;
65373;SDS011;52070;53.760;9.678;2023-05-15T06:28:21;12.40;;;7.90;;
65373;SDS011;52070;53.760;9.678;2023-05-15T06:30:48;13.18;;;7.75;;
65373;SDS011;52070;53.760;9.678;2023-05-15T06:33:15;10.45;;;7.25;;
65373;SDS011;52070;53.760;9.678;2023-05-15T06:35:42;8.65;;;7.18;;
65373;SDS011;52070;53.760;9.678;2023-05-15T06:38:08;14.32;;;7.50;;
65373;SDS011;52070;53.760;9.678;2023-05-15T06:40:35;10.25;;;6.85;;
65373;SDS011;52070;53.760;9.678;2023-05-15T06:43:02;11.93;;;6.57;;
65373;SDS011;52070;53.760;9.678;2023-05-15T06:45:31;8.90;;;6.03;;
65373;SDS011;52070;53.760;9.678;2023-05-15T06:47:58;8.85;;;5.43;;
65373;SDS011;52070;53.760;9.678;2023-05-15T06:50:25;8.50;;;5.65;;
65373;SDS011;52070;53.760;9.678;2023-05-15T06:52:52;7.90;;;5.40;;
65373;SDS011;52070;53.760;9.678;2023-05-15T06:55:19;6.70;;;4.93;;
65373;SDS011;52070;53.760;9.678;2023-05-15T06:57:46;8.70;;;5.15;;
65373;SDS011;52070;53.760;9.678;2023-05-15T07:00:13;8.13;;;5.50;;
65373;SDS011;52070;53.760;9.678;2023-05-15T07:02:42;12.48;;;5.80;;
65373;SDS011;52070;53.760;9.678;2023-05-15T07:05:09;11.63;;;5.05;;
65373;SDS011;52070;53.760;9.678;2023-05-15T07:07:36;7.05;;;5.40;;
65373;SDS011;52070;53.760;9.678;2023-05-15T07:10:03;10.20;;;6.07;;
65373;SDS011;52070;53.760;9.678;2023-05-15T07:12:31;12.48;;;6.88;;
65373;SDS011;52070;53.760;9.678;2023-05-15T07:14:58;10.93;;;7.13;;
65373;SDS011;52070;53.760;9.678;2023-05-15T07:17:25;7.38;;;6.45;;
65373;SDS011;52070;53.760;9.678;2023-05-15T07:19:54;9.05;;;6.65;;
65373;SDS011;52070;53.760;9.678;2023-05-15T07:22:20;13.38;;;6.75;;
65373;SDS011;52070;53.760;9.678;2023-05-15T07:24:47;9.18;;;6.75;;
65373;SDS011;52070;53.760;9.678;2023-05-15T07:27:14;11.13;;;6.20;;
65373;SDS011;52070;53.760;9.678;2023-05-15T07:29:41;11.90;;;6.38;;
65373;SDS011;52070;53.760;9.678;2023-05-15T07:32:08;10.38;;;6.30;;
65373;SDS011;52070;53.760;9.678;2023-05-15T07:34:35;12.52;;;7.00;;
65373;SDS011;52070;53.760;9.678;2023-05-15T07:37:04;14.20;;;7.25;;
65373;SDS011;52070;53.760;9.678;2023-05-15T07:39:31;12.13;;;6.65;;
65373;SDS011;52070;53.760;9.678;2023-05-15T07:41:58;7.05;;;5.25;;
65373;SDS011;52070;53.760;9.678;2023-05-15T07:44:25;7.70;;;5.57;;
65373;SDS011;52070;53.760;9.678;2023-05-15T07:46:53;10.57;;;5.43;;
65373;SDS011;52070;53.760;9.678;2023-05-15T07:49:20;8.02;;;4.70;;
65373;SDS011;52070;53.760;9.678;2023-05-15T07:51:48;7.88;;;3.90;;
65373;SDS011;52070;53.760;9.678;2023-05-15T07:54:16;8.43;;;4.07;;
65373;SDS011;52070;53.760;9.678;2023-05-15T07:56:43;7.40;;;4.75;;
65373;SDS011;52070;53.760;9.678;2023-05-15T07:59:10;8.32;;;4.72;;
65373;SDS011;52070;53.760;9.678;2023-05-15T08:01:37;9.48;;;4.75;;
65373;SDS011;52070;53.760;9.678;2023-05-15T08:04:05;7.03;;;5.18;;
65373;SDS011;52070;53.760;9.678;2023-05-15T08:06:34;6.53;;;4.38;;
65373;SDS011;52070;53.760;9.678;2023-05-15T08:09:02;7.28;;;3.78;;
65373;SDS011;52070;53.760;9.678;2023-05-15T08:11:31;8.90;;;3.90;;
65373;SDS011;52070;53.760;9.678;2023-05-15T08:13:58;4.68;;;3.13;;
65373;SDS011;52070;53.760;9.678;2023-05-15T08:16:25;6.68;;;3.30;;
65373;SDS011;52070;53.760;9.678;2023-05-15T08:18:52;5.45;;;3.30;;
65373;SDS011;52070;53.760;9.678;2023-05-15T08:21:23;4.45;;;3.20;;
65373;SDS011;52070;53.760;9.678;2023-05-15T08:23:50;3.42;;;2.60;;
65373;SDS011;52070;53.760;9.678;2023-05-15T08:26:17;6.70;;;2.83;;
65373;SDS011;52070;53.760;9.678;2023-05-15T08:28:45;3.45;;;2.53;;
65373;SDS011;52070;53.760;9.678;2023-05-15T08:31:12;12.13;;;2.80;;
65373;SDS011;52070;53.760;9.678;2023-05-15T08:33:39;3.35;;;2.70;;
65373;SDS011;52070;53.760;9.678;2023-05-15T08:36:06;5.60;;;3.35;;
65373;SDS011;52070;53.760;9.678;2023-05-15T08:38:34;7.47;;;3.00;;
65373;SDS011;52070;53.760;9.678;2023-05-15T08:41:02;5.60;;;3.08;;
65373;SDS011;52070;53.760;9.678;2023-05-15T08:43:33;5.30;;;2.72;;
65373;SDS011;52070;53.760;9.678;2023-05-15T08:46:05;5.82;;;2.70;;
65373;SDS011;52070;53.760;9.678;2023-05-15T08:48:32;5.63;;;2.65;;
65373;SDS011;52070;53.760;9.678;2023-05-15T08:53:29;5.88;;;2.83;;
65373;SDS011;52070;53.760;9.678;2023-05-15T08:55:57;6.00;;;2.70;;
65373;SDS011;52070;53.760;9.678;2023-05-15T08:58:24;4.43;;;2.67;;
65373;SDS011;52070;53.760;9.678;2023-05-15T09:00:53;5.15;;;2.40;;
65373;SDS011;52070;53.760;9.678;2023-05-15T09:03:22;7.07;;;2.97;;
65373;SDS011;52070;53.760;9.678;2023-05-15T09:05:49;6.30;;;2.88;;
65373;SDS011;52070;53.760;9.678;2023-05-15T09:08:18;4.13;;;2.50;;
65373;SDS011;52070;53.760;9.678;2023-05-15T09:10:48;6.13;;;2.67;;
65373;SDS011;52070;53.760;9.678;2023-05-15T09:13:16;4.35;;;2.60;;
65373;SDS011;52070;53.760;9.678;2023-05-15T09:15:44;4.75;;;2.83;;
65373;SDS011;52070;53.760;9.678;2023-05-15T09:18:12;6.28;;;2.47;;
65373;SDS011;52070;53.760;9.678;2023-05-15T09:20:41;4.00;;;2.40;;
65373;SDS011;52070;53.760;9.678;2023-05-15T09:23:20;4.72;;;2.63;;
65373;SDS011;52070;53.760;9.678;2023-05-15T09:25:49;3.92;;;2.70;;
65373;SDS011;52070;53.760;9.678;2023-05-15T09:28:24;7.50;;;2.67;;
65373;SDS011;52070;53.760;9.678;2023-05-15T09:30:55;3.55;;;2.58;;
65373;SDS011;52070;53.760;9.678;2023-05-15T09:33:27;6.60;;;2.58;;
65373;SDS011;52070;53.760;9.678;2023-05-15T09:35:57;6.72;;;2.50;;
65373;SDS011;52070;53.760;9.678;2023-05-15T09:38:24;9.10;;;2.70;;
65373;SDS011;52070;53.760;9.678;2023-05-15T09:40:59;7.38;;;3.00;;
65373;SDS011;52070;53.760;9.678;2023-05-15T09:43:27;5.28;;;2.80;;
65373;SDS011;52070;53.760;9.678;2023-05-15T09:45:55;3.33;;;2.30;;
65373;SDS011;52070;53.760;9.678;2023-05-15T09:48:22;5.60;;;2.28;;
65373;SDS011;52070;53.760;9.678;2023-05-15T09:50:49;4.97;;;2.42;;
65373;SDS011;52070;53.760;9.678;2023-05-15T09:53:19;3.28;;;2.10;;
65373;SDS011;52070;53.760;9.678;2023-05-15T09:55:48;6.55;;;2.22;;
65373;SDS011;52070;53.760;9.678;2023-05-15T09:58:16;13.02;;;2.90;;
65373;SDS011;52070;53.760;9.678;2023-05-15T10:00:44;3.55;;;2.22;;
65373;SDS011;52070;53.760;9.678;2023-05-15T10:03:12;4.78;;;2.38;;
65373;SDS011;52070;53.760;9.678;2023-05-15T10:05:39;5.50;;;2.20;;
65373;SDS011;52070;53.760;9.678;2023-05-15T10:08:07;5.95;;;2.30;;
65373;SDS011;52070;53.760;9.678;2023-05-15T10:10:35;7.85;;;2.40;;
65373;SDS011;52070;53.760;9.678;2023-05-15T10:13:02;5.93;;;2.35;;
65373;SDS011;52070;53.760;9.678;2023-05-15T10:15:30;6.25;;;2.35;;
65373;SDS011;52070;53.760;9.678;2023-05-15T10:17:58;7.10;;;2.63;;
65373;SDS011;52070;53.760;9.678;2023-05-15T10:20:25;4.10;;;2.25;;
65373;SDS011;52070;53.760;9.678;2023-05-15T10:22:53;4.63;;;2.50;;
65373;SDS011;52070;53.760;9.678;2023-05-15T10:25:25;4.80;;;2.35;;
65373;SDS011;52070;53.760;9.678;2023-05-15T10:27:59;6.20;;;2.50;;
65373;SDS011;52070;53.760;9.678;2023-05-15T10:30:27;3.80;;;2.33;;
65373;SDS011;52070;53.760;9.678;2023-05-15T10:32:54;4.97;;;2.40;;
65373;SDS011;52070;53.760;9.678;2023-05-15T10:35:22;7.53;;;2.85;;
65373;SDS011;52070;53.760;9.678;2023-05-15T10:37:49;4.03;;;2.40;;
65373;SDS011;52070;53.760;9.678;2023-05-15T10:40:16;4.70;;;2.65;;
65373;SDS011;52070;53.760;9.678;2023-05-15T10:42:43;5.72;;;2.50;;
65373;SDS011;52070;53.760;9.678;2023-05-15T10:45:13;5.35;;;2.38;;
65373;SDS011;52070;53.760;9.678;2023-05-15T10:47:40;4.45;;;2.30;;
65373;SDS011;52070;53.760;9.678;2023-05-15T10:50:08;6.78;;;2.60;;
65373;SDS011;52070;53.760;9.678;2023-05-15T10:52:38;4.33;;;2.47;;
65373;SDS011;52070;53.760;9.678;2023-05-15T10:55:06;3.85;;;2.20;;
65373;SDS011;52070;53.760;9.678;2023-05-15T10:57:35;4.43;;;2.25;;
65373;SDS011;52070;53.760;9.678;2023-05-15T11:00:02;7.53;;;1.90;;
65373;SDS011;52070;53.760;9.678;2023-05-15T11:02:51;6.47;;;2.10;;
65373;SDS011;52070;53.760;9.678;2023-05-15T11:05:21;8.73;;;3.60;;
65373;SDS011;52070;53.760;9.678;2023-05-15T11:10:50;6.55;;;4.18;;
65373;SDS011;52070;53.760;9.678;2023-05-15T11:13:17;9.23;;;3.90;;
65373;SDS011;52070;53.760;9.678;2023-05-15T11:15:44;9.18;;;4.82;;
65373;SDS011;52070;53.760;9.678;2023-05-15T11:18:14;9.60;;;5.20;;
65373;SDS011;52070;53.760;9.678;2023-05-15T11:20:41;10.07;;;6.03;;
65373;SDS011;52070;53.760;9.678;2023-05-15T11:23:36;9.25;;;5.47;;
65373;SDS011;52070;53.760;9.678;2023-05-15T11:26:05;9.55;;;5.82;;
65373;SDS011;52070;53.760;9.678;2023-05-15T11:28:39;11.27;;;5.30;;
65373;SDS011;52070;53.760;9.678;2023-05-15T11:31:08;8.85;;;4.82;;
65373;SDS011;52070;53.760;9.678;2023-05-15T11:33:38;5.82;;;4.05;;
65373;SDS011;52070;53.760;9.678;2023-05-15T11:36:06;11.88;;;5.10;;
65373;SDS011;52070;53.760;9.678;2023-05-15T11:38:37;9.13;;;5.57;;
65373;SDS011;52070;53.760;9.678;2023-05-15T11:41:15;13.07;;;5.93;;
65373;SDS011;52070;53.760;9.678;2023-05-15T11:43:44;10.43;;;5.75;;
65373;SDS011;52070;53.760;9.678;2023-05-15T11:46:11;12.23;;;7.72;;
65373;SDS011;52070;53.760;9.678;2023-05-15T11:48:41;12.98;;;8.77;;
65373;SDS011;52070;53.760;9.678;2023-05-15T11:53:41;14.65;;;8.00;;
65373;SDS011;52070;53.760;9.678;2023-05-15T11:56:11;15.30;;;8.30;;
65373;SDS011;52070;53.760;9.678;2023-05-15T11:58:42;13.23;;;7.80;;
65373;SDS011;52070;53.760;9.678;2023-05-15T12:01:09;14.95;;;9.13;;
65373;SDS011;52070;53.760;9.678;2023-05-15T12:03:37;14.88;;;8.43;;
65373;SDS011;52070;53.760;9.678;2023-05-15T12:06:06;12.18;;;7.53;;
65373;SDS011;52070;53.760;9.678;2023-05-15T12:08:33;19.73;;;8.18;;
65373;SDS011;52070;53.760;9.678;2023-05-15T12:11:02;15.02;;;7.90;;
65373;SDS011;52070;53.760;9.678;2023-05-15T12:13:30;13.48;;;7.57;;
65373;SDS011;52070;53.760;9.678;2023-05-15T12:15:59;15.32;;;8.82;;
65373;SDS011;52070;53.760;9.678;2023-05-15T12:18:27;13.57;;;9.27;;
65373;SDS011;52070;53.760;9.678;2023-05-15T12:20:56;13.95;;;9.32;;
65373;SDS011;52070;53.760;9.678;2023-05-15T12:23:25;16.50;;;9.90;;
65373;SDS011;52070;53.760;9.678;2023-05-15T12:25:54;15.55;;;9.25;;
65373;SDS011;52070;53.760;9.678;2023-05-15T12:28:23;17.40;;;9.50;;
65373;SDS011;52070;53.760;9.678;2023-05-15T12:30:51;18.00;;;11.27;;
65373;SDS011;52070;53.760;9.678;2023-05-15T12:33:18;17.45;;;10.95;;
65373;SDS011;52070;53.760;9.678;2023-05-15T12:35:48;15.20;;;10.55;;
65373;SDS011;52070;53.760;9.678;2023-05-15T12:38:17;16.83;;;10.63;;
65373;SDS011;52070;53.760;9.678;2023-05-15T12:40:49;17.33;;;10.95;;
65373;SDS011;52070;53.760;9.678;2023-05-15T12:43:17;17.42;;;10.98;;
65373;SDS011;52070;53.760;9.678;2023-05-15T12:45:45;15.90;;;10.57;;
65373;SDS011;52070;53.760;9.678;2023-05-15T12:48:13;14.85;;;10.48;;
65373;SDS011;52070;53.760;9.678;2023-05-15T12:50:42;13.98;;;10.65;;
65373;SDS011;52070;53.760;9.678;2023-05-15T12:53:11;22.45;;;10.68;;
65373;SDS011;52070;53.760;9.678;2023-05-15T12:55:39;15.63;;;10.43;;
65373;SDS011;52070;53.760;9.678;2023-05-15T12:58:08;15.25;;;10.30;;
65373;SDS011;52070;53.760;9.678;2023-05-15T13:00:37;17.45;;;10.05;;
65373;SDS011;52070;53.760;9.678;2023-05-15T13:03:09;15.07;;;10.52;;
65373;SDS011;52070;53.760;9.678;2023-05-15T13:05:37;15.13;;;10.10;;
65373;SDS011;52070;53.760;9.678;2023-05-15T13:08:05;19.75;;;9.85;;
65373;SDS011;52070;53.760;9.678;2023-05-15T13:10:33;17.23;;;10.70;;
65373;SDS011;52070;53.760;9.678;2023-05-15T13:13:02;18.50;;;11.65;;
65373;SDS011;52070;53.760;9.678;2023-05-15T13:15:31;19.30;;;11.43;;
65373;SDS011;52070;53.760;9.678;2023-05-15T13:17:59;16.65;;;11.02;;
65373;SDS011;52070;53.760;9.678;2023-05-15T13:20:27;16.73;;;9.65;;
65373;SDS011;52070;53.760;9.678;2023-05-15T13:22:57;14.65;;;11.93;;
65373;SDS011;52070;53.760;9.678;2023-05-15T13:25:24;15.80;;;11.07;;
65373;SDS011;52070;53.760;9.678;2023-05-15T13:27:51;15.23;;;12.15;;
65373;SDS011;52070;53.760;9.678;2023-05-15T13:30:18;13.77;;;11.38;;
65373;SDS011;52070;53.760;9.678;2023-05-15T13:32:47;13.68;;;10.50;;
65373;SDS011;52070;53.760;9.678;2023-05-15T13:35:14;20.27;;;12.27;;
65373;SDS011;52070;53.760;9.678;2023-05-15T13:37:41;18.15;;;11.85;;
65373;SDS011;52070;53.760;9.678;2023-05-15T13:40:08;17.40;;;11.80;;
65373;SDS011;52070;53.760;9.678;2023-05-15T13:42:36;18.27;;;10.65;;
65373;SDS011;52070;53.760;9.678;2023-05-15T13:45:05;18.98;;;11.57;;
65373;SDS011;52070;53.760;9.678;2023-05-15T13:47:33;15.30;;;9.93;;
65373;SDS011;52070;53.760;9.678;2023-05-15T13:50:02;13.55;;;10.52;;
65373;SDS011;52070;53.760;9.678;2023-05-15T13:52:29;18.40;;;11.15;;
65373;SDS011;52070;53.760;9.678;2023-05-15T13:54:56;19.33;;;11.57;;
65373;SDS011;52070;53.760;9.678;2023-05-15T13:57:23;18.05;;;11.25;;
65373;SDS011;52070;53.760;9.678;2023-05-15T13:59:51;20.90;;;12.40;;
65373;SDS011;52070;53.760;9.678;2023-05-15T14:02:18;18.10;;;11.90;;
65373;SDS011;52070;53.760;9.678;2023-05-15T14:04:45;16.92;;;12.25;;
65373;SDS011;52070;53.760;9.678;2023-05-15T14:07:14;15.40;;;11.73;;
65373;SDS011;52070;53.760;9.678;2023-05-15T14:09:41;15.90;;;11.65;;
65373;SDS011;52070;53.760;9.678;2023-05-15T14:12:08;17.33;;;11.38;;
65373;SDS011;52070;53.760;9.678;2023-05-15T14:14:36;21.58;;;10.80;;
65373;SDS011;52070;53.760;9.678;2023-05-15T14:17:03;18.02;;;10.93;;
65373;SDS011;52070;53.760;9.678;2023-05-15T14:19:30;18.75;;;10.68;;
65373;SDS011;52070;53.760;9.678;2023-05-15T14:21:57;18.80;;;11.80;;
65373;SDS011;52070;53.760;9.678;2023-05-15T14:24:26;18.52;;;11.35;;
65373;SDS011;52070;53.760;9.678;2023-05-15T14:26:52;15.38;;;10.82;;
65373;SDS011;52070;53.760;9.678;2023-05-15T14:29:19;19.30;;;10.32;;
65373;SDS011;52070;53.760;9.678;2023-05-15T14:31:46;14.05;;;9.52;;
65373;SDS011;52070;53.760;9.678;2023-05-15T14:34:13;14.02;;;9.15;;
65373;SDS011;52070;53.760;9.678;2023-05-15T14:36:41;17.48;;;9.40;;
65373;SDS011;52070;53.760;9.678;2023-05-15T14:39:07;16.60;;;9.45;;
65373;SDS011;52070;53.760;9.678;2023-05-15T14:41:36;12.52;;;7.70;;
65373;SDS011;52070;53.760;9.678;2023-05-15T14:44:03;10.07;;;5.25;;
65373;SDS011;52070;53.760;9.678;2023-05-15T14:46:30;5.75;;;3.65;;
65373;SDS011;52070;53.760;9.678;2023-05-15T14:48:57;7.80;;;4.03;;